EXS32VA EGCC-LDDU
Flight info
| Callsign | EXS32VA |
|---|---|
| Flight time | N/A |
| Altitude | 37000 |
| Route | DESIG1S DESIG L603 DOLAS DCT NAVPI DCT DODEN DCT NEGIX DCT DINKU M867 XERUM DCT BAVAX DCT RADIZ DCT EVAXI DCT PENEP DCT RASTU DCT DEPET DCT UNIPA DCT SIPAL SIPAL1H |
| Aircraft | B738/M-SDE2E3FGHIRWXY/LB1 |
Departure
| Time | N/A |
|---|---|
| Airport | Manchester Airport (EGCC) |
Arrival
| Time | 2026-04-29 19:33 |
|---|---|
| Airport | Dubrovnik Ruđer Bošković Airport (LDDU) |
| Time | Latitude | Longitude | Altitude | Speed | Heading |
|---|---|---|---|---|---|
| 2026-04-29 18:54 | 45.53284 | 15.03691 | 37254 ft | 500 kts | 143° |
| 2026-04-29 18:54 | 45.50630 | 15.06905 | 37249 ft | 500 kts | 143° |
| 2026-04-29 18:55 | 45.45363 | 15.13271 | 37264 ft | 499 kts | 143° |
| 2026-04-29 18:55 | 45.40062 | 15.19662 | 37253 ft | 499 kts | 143° |
| 2026-04-29 18:56 | 45.34766 | 15.26032 | 37249 ft | 498 kts | 143° |
| 2026-04-29 18:56 | 45.29472 | 15.32383 | 37247 ft | 497 kts | 143° |
| 2026-04-29 18:57 | 45.25070 | 15.37651 | 37241 ft | 497 kts | 143° |
| 2026-04-29 18:57 | 45.19780 | 15.43967 | 37245 ft | 497 kts | 143° |
| 2026-04-29 18:58 | 45.14485 | 15.50275 | 37239 ft | 497 kts | 143° |
| 2026-04-29 18:58 | 45.09263 | 15.56692 | 37219 ft | 498 kts | 141° |
| 2026-04-29 18:59 | 45.04199 | 15.63386 | 37228 ft | 498 kts | 140° |
| 2026-04-29 18:59 | 44.99160 | 15.70110 | 37217 ft | 498 kts | 140° |
| 2026-04-29 19:00 | 44.94167 | 15.76785 | 37224 ft | 497 kts | 140° |
| 2026-04-29 19:00 | 44.89150 | 15.83495 | 37221 ft | 497 kts | 140° |
| 2026-04-29 19:01 | 44.84131 | 15.90219 | 37197 ft | 497 kts | 140° |
| 2026-04-29 19:01 | 44.79110 | 15.96926 | 37197 ft | 497 kts | 140° |
| 2026-04-29 19:02 | 44.74090 | 16.03621 | 37206 ft | 497 kts | 140° |
| 2026-04-29 19:02 | 44.69069 | 16.10311 | 37197 ft | 497 kts | 140° |
| 2026-04-29 19:03 | 44.64050 | 16.17005 | 37178 ft | 497 kts | 140° |
| 2026-04-29 19:03 | 44.59077 | 16.23641 | 37164 ft | 496 kts | 140° |
| 2026-04-29 19:04 | 44.54077 | 16.30300 | 37172 ft | 495 kts | 140° |
| 2026-04-29 19:04 | 44.49083 | 16.36944 | 37171 ft | 495 kts | 140° |
| 2026-04-29 19:05 | 44.44086 | 16.43589 | 37181 ft | 494 kts | 140° |
| 2026-04-29 19:05 | 44.39094 | 16.50222 | 37153 ft | 495 kts | 140° |
| 2026-04-29 19:06 | 44.34108 | 16.56836 | 37165 ft | 494 kts | 140° |
| 2026-04-29 19:07 | 44.26690 | 16.66652 | 36809 ft | 484 kts | 141° |
| 2026-04-29 19:07 | 44.24923 | 16.68616 | 36352 ft | 479 kts | 152° |
| 2026-04-29 19:07 | 44.21038 | 16.71459 | 35475 ft | 473 kts | 161° |
| 2026-04-29 19:07 | 44.18059 | 16.73297 | 34885 ft | 466 kts | 161° |
| 2026-04-29 19:08 | 44.15120 | 16.75165 | 34294 ft | 461 kts | 160° |
| 2026-04-29 19:08 | 44.12254 | 16.77130 | 33619 ft | 456 kts | 158° |
| 2026-04-29 19:08 | 44.09459 | 16.79181 | 32969 ft | 451 kts | 156° |
| 2026-04-29 19:08 | 44.06721 | 16.81289 | 32347 ft | 446 kts | 155° |
| 2026-04-29 19:09 | 44.04042 | 16.83410 | 31711 ft | 441 kts | 155° |
| 2026-04-29 19:09 | 44.01392 | 16.85533 | 31115 ft | 436 kts | 155° |
| 2026-04-29 19:09 | 43.98776 | 16.87636 | 30519 ft | 432 kts | 155° |
| 2026-04-29 19:09 | 43.96223 | 16.89687 | 29898 ft | 427 kts | 155° |
| 2026-04-29 19:10 | 43.93628 | 16.91766 | 29210 ft | 422 kts | 155° |
| 2026-04-29 19:10 | 43.91097 | 16.93787 | 28547 ft | 418 kts | 154° |
| 2026-04-29 19:10 | 43.88619 | 16.95762 | 27905 ft | 414 kts | 154° |
| 2026-04-29 19:10 | 43.86102 | 16.97765 | 27262 ft | 410 kts | 154° |
| 2026-04-29 19:11 | 43.83668 | 16.99697 | 26662 ft | 406 kts | 154° |
| 2026-04-29 19:11 | 43.81227 | 17.01633 | 26061 ft | 403 kts | 154° |
| 2026-04-29 19:11 | 43.78806 | 17.03551 | 25453 ft | 399 kts | 154° |
| 2026-04-29 19:11 | 43.76401 | 17.05455 | 24878 ft | 395 kts | 154° |
| 2026-04-29 19:12 | 43.74019 | 17.07339 | 24331 ft | 392 kts | 154° |
| 2026-04-29 19:12 | 43.71655 | 17.09207 | 23780 ft | 389 kts | 154° |
| 2026-04-29 19:12 | 43.69308 | 17.11060 | 23113 ft | 386 kts | 154° |
| 2026-04-29 19:12 | 43.67768 | 17.12275 | 22690 ft | 384 kts | 154° |
| 2026-04-29 19:13 | 43.64679 | 17.14710 | 21842 ft | 380 kts | 154° |
| 2026-04-29 19:13 | 43.62389 | 17.16513 | 21224 ft | 377 kts | 154° |
| 2026-04-29 19:13 | 43.60117 | 17.18302 | 20622 ft | 375 kts | 154° |
| 2026-04-29 19:13 | 43.57840 | 17.20089 | 19868 ft | 379 kts | 154° |
| 2026-04-29 19:14 | 43.55561 | 17.21878 | 19341 ft | 375 kts | 154° |
| 2026-04-29 19:14 | 43.53321 | 17.23637 | 18884 ft | 376 kts | 154° |
| 2026-04-29 19:14 | 43.51007 | 17.25447 | 18401 ft | 392 kts | 154° |
| 2026-04-29 19:14 | 43.48563 | 17.27353 | 17843 ft | 414 kts | 154° |
| 2026-04-29 19:15 | 43.46050 | 17.29317 | 17268 ft | 411 kts | 154° |
| 2026-04-29 19:15 | 43.43603 | 17.31237 | 16728 ft | 398 kts | 154° |
| 2026-04-29 19:15 | 43.41234 | 17.33096 | 16256 ft | 385 kts | 154° |
| 2026-04-29 19:15 | 43.38928 | 17.34903 | 15769 ft | 377 kts | 154° |
| 2026-04-29 19:16 | 43.36671 | 17.36666 | 15314 ft | 370 kts | 154° |
| 2026-04-29 19:16 | 43.34429 | 17.38412 | 14846 ft | 370 kts | 154° |
| 2026-04-29 19:16 | 43.32142 | 17.40186 | 14409 ft | 387 kts | 154° |
| 2026-04-29 19:16 | 43.29800 | 17.42000 | 13895 ft | 391 kts | 154° |
| 2026-04-29 19:17 | 43.27464 | 17.43817 | 13419 ft | 380 kts | 154° |
| 2026-04-29 19:17 | 43.25207 | 17.45574 | 12926 ft | 367 kts | 154° |
| 2026-04-29 19:17 | 43.23022 | 17.47274 | 12441 ft | 355 kts | 154° |
| 2026-04-29 19:17 | 43.20906 | 17.48918 | 11966 ft | 344 kts | 154° |
| 2026-04-29 19:18 | 43.18846 | 17.50515 | 11519 ft | 335 kts | 154° |
| 2026-04-29 19:18 | 43.17491 | 17.51564 | 11213 ft | 329 kts | 154° |
| 2026-04-29 19:18 | 43.14885 | 17.53579 | 10625 ft | 320 kts | 154° |
| 2026-04-29 19:18 | 43.12970 | 17.55057 | 10194 ft | 313 kts | 154° |
| 2026-04-29 19:19 | 43.11088 | 17.56510 | 9743 ft | 307 kts | 154° |
| 2026-04-29 19:19 | 43.09246 | 17.57934 | 9254 ft | 302 kts | 153° |
| 2026-04-29 19:19 | 43.07440 | 17.59333 | 8900 ft | 294 kts | 153° |
| 2026-04-29 19:19 | 43.05721 | 17.60771 | 8545 ft | 287 kts | 147° |
| 2026-04-29 19:20 | 43.04136 | 17.62374 | 8211 ft | 280 kts | 144° |
| 2026-04-29 19:20 | 43.02612 | 17.63991 | 7877 ft | 274 kts | 144° |
| 2026-04-29 19:20 | 43.01129 | 17.65568 | 7553 ft | 268 kts | 144° |
| 2026-04-29 19:20 | 42.99665 | 17.67115 | 7227 ft | 263 kts | 144° |
| 2026-04-29 19:21 | 42.98248 | 17.68598 | 6918 ft | 256 kts | 144° |
| 2026-04-29 19:21 | 42.96854 | 17.70050 | 6697 ft | 250 kts | 144° |
| 2026-04-29 19:21 | 42.95481 | 17.71475 | 6465 ft | 244 kts | 144° |
| 2026-04-29 19:21 | 42.94129 | 17.72871 | 6216 ft | 243 kts | 144° |
| 2026-04-29 19:22 | 42.92782 | 17.74259 | 5980 ft | 242 kts | 144° |
| 2026-04-29 19:22 | 42.91440 | 17.75640 | 5760 ft | 242 kts | 144° |
| 2026-04-29 19:22 | 42.90092 | 17.77023 | 5517 ft | 243 kts | 144° |
| 2026-04-29 19:22 | 42.88737 | 17.78412 | 5291 ft | 243 kts | 144° |
| 2026-04-29 19:23 | 42.87391 | 17.79794 | 5058 ft | 241 kts | 144° |
| 2026-04-29 19:23 | 42.86055 | 17.81162 | 4826 ft | 239 kts | 144° |
| 2026-04-29 19:23 | 42.84728 | 17.82520 | 4588 ft | 237 kts | 144° |
| 2026-04-29 19:23 | 42.83426 | 17.83854 | 4389 ft | 232 kts | 144° |
| 2026-04-29 19:24 | 42.82153 | 17.85155 | 4220 ft | 225 kts | 144° |
| 2026-04-29 19:24 | 42.80908 | 17.86427 | 4046 ft | 222 kts | 144° |
| 2026-04-29 19:24 | 42.79680 | 17.87684 | 3869 ft | 219 kts | 144° |
| 2026-04-29 19:24 | 42.78486 | 17.88902 | 3688 ft | 216 kts | 144° |
| 2026-04-29 19:25 | 42.77298 | 17.90115 | 3502 ft | 211 kts | 144° |
| 2026-04-29 19:25 | 42.76138 | 17.91298 | 3323 ft | 206 kts | 144° |
| 2026-04-29 19:25 | 42.75995 | 17.91444 | 3300 ft | 206 kts | 144° |
| 2026-04-29 19:25 | 42.75692 | 17.91753 | 3253 ft | 205 kts | 144° |
| 2026-04-29 19:26 | 42.74551 | 17.92914 | 3094 ft | 205 kts | 144° |
| 2026-04-29 19:26 | 42.73407 | 17.94078 | 2920 ft | 205 kts | 143° |
| 2026-04-29 19:26 | 42.72267 | 17.95240 | 2747 ft | 204 kts | 143° |
| 2026-04-29 19:26 | 42.71136 | 17.96395 | 2561 ft | 202 kts | 143° |
| 2026-04-29 19:27 | 42.70018 | 17.97531 | 2368 ft | 198 kts | 143° |
| 2026-04-29 19:27 | 42.68921 | 17.98639 | 2194 ft | 195 kts | 143° |
| 2026-04-29 19:27 | 42.67847 | 17.99731 | 2050 ft | 190 kts | 143° |
| 2026-04-29 19:27 | 42.66817 | 18.00779 | 1999 ft | 186 kts | 143° |
| 2026-04-29 19:28 | 42.65904 | 18.02001 | 1992 ft | 185 kts | 117° |
| 2026-04-29 19:28 | 42.65412 | 18.03568 | 2002 ft | 176 kts | 119° |
| 2026-04-29 19:28 | 42.64803 | 18.04936 | 1995 ft | 164 kts | 120° |
| 2026-04-29 19:28 | 42.64265 | 18.06287 | 2007 ft | 161 kts | 118° |
| 2026-04-29 19:29 | 42.63747 | 18.07610 | 2053 ft | 157 kts | 118° |
| 2026-04-29 19:29 | 42.63227 | 18.08924 | 1997 ft | 154 kts | 119° |
| 2026-04-29 19:29 | 42.62739 | 18.10156 | 1981 ft | 146 kts | 119° |
| 2026-04-29 19:29 | 42.62267 | 18.11352 | 1982 ft | 142 kts | 118° |
| 2026-04-29 19:30 | 42.61804 | 18.12518 | 1993 ft | 140 kts | 119° |
| 2026-04-29 19:30 | 42.61343 | 18.13678 | 1995 ft | 141 kts | 118° |
| 2026-04-29 19:30 | 42.60876 | 18.14855 | 1996 ft | 142 kts | 118° |
| 2026-04-29 19:30 | 42.60407 | 18.16036 | 1984 ft | 143 kts | 118° |
| 2026-04-29 19:31 | 42.59928 | 18.17246 | 1785 ft | 145 kts | 118° |
| 2026-04-29 19:31 | 42.59451 | 18.18448 | 1610 ft | 144 kts | 118° |
| 2026-04-29 19:31 | 42.58981 | 18.19638 | 1412 ft | 143 kts | 117° |
| 2026-04-29 19:31 | 42.58509 | 18.20829 | 1218 ft | 144 kts | 117° |
| 2026-04-29 19:32 | 42.58036 | 18.22025 | 1022 ft | 145 kts | 117° |
| 2026-04-29 19:32 | 42.57565 | 18.23240 | 817 ft | 146 kts | 116° |
| 2026-04-29 19:32 | 42.57087 | 18.24428 | 620 ft | 139 kts | 117° |
| 2026-04-29 19:32 | 42.56651 | 18.25545 | 535 ft | 125 kts | 117° |
| 2026-04-29 19:33 | 42.56365 | 18.26257 | 533 ft | 57 kts | 117° |
| 2026-04-29 19:33 | 42.56232 | 18.26591 | 533 ft | 32 kts | 132° |
| 2026-04-29 19:33 | 42.56144 | 18.26591 | 533 ft | 0 kts | 249° |
| 2026-04-29 19:34 | 42.56144 | 18.26590 | 533 ft | 1 kts | 249° |
| 2026-04-29 19:34 | 42.56126 | 18.26540 | 533 ft | 9 kts | 242° |
| 2026-04-29 19:34 | 42.56106 | 18.26445 | 533 ft | 12 kts | 277° |
| 2026-04-29 19:35 | 42.56130 | 18.26343 | 533 ft | 6 kts | 264° |
| 2026-04-29 19:35 | 42.56127 | 18.26337 | 533 ft | 2 kts | 233° |
| 2026-04-29 19:35 | 42.56105 | 18.26314 | 533 ft | 1 kts | 209° |
| 2026-04-29 19:35 | 42.56094 | 18.26307 | 533 ft | 2 kts | 208° |
| 2026-04-29 19:36 | 42.56085 | 18.26300 | 533 ft | 0 kts | 208° |
| 2026-04-29 19:40 | 42.56086 | 18.26300 | 533 ft | 0 kts | 208° |